Terminal Aerodrome Forecast
Issued by NWS

Home | Current Version | Previous Version | Text Only | Print | Product List | Glossary Off
Versions: 1 2 3 4 5 6 7 8 9 10 11 12 13 14 15 16 17 18

000
FTUS43 KMPX 270520
TAFAXN
TAF
KAXN 270520Z 2706/2806 14007KT P6SM FEW250
     FM271000 14005KT 3SM BR SCT010
     FM271300 13008KT P6SM FEW250
     FM271600 14012G19KT P6SM FEW050 BKN250
     FM280000 14011G17KT P6SM VCTS BKN040CB=

USA.gov is the U.S. government's official web portal to all federal, state and local government web resources and services.